createdAt,value
2022-09-27T00:01:17.512Z,72.50
2022-09-27T00:03:46.070Z,72.50
2022-09-27T00:06:16.196Z,72.50
2022-09-27T00:08:44.519Z,72.60
2022-09-27T00:11:20.710Z,72.60
2022-09-27T00:13:50.175Z,72.80
2022-09-27T00:16:18.434Z,72.60
2022-09-27T00:18:46.542Z,72.60
2022-09-27T00:21:15.474Z,72.50
2022-09-27T00:23:43.667Z,72.50
2022-09-27T00:26:14.424Z,72.60
2022-09-27T00:28:42.618Z,72.50
2022-09-27T00:31:21.425Z,72.50
2022-09-27T00:33:50.779Z,72.60
2022-09-27T00:36:20.066Z,73.10
2022-09-27T00:38:48.423Z,72.40
2022-09-27T00:41:18.221Z,72.40
2022-09-27T00:43:49.911Z,72.30
2022-09-27T00:46:25.775Z,72.40
2022-09-27T00:49:05.024Z,72.30
2022-09-27T00:51:36.204Z,72.30
2022-09-27T00:54:05.688Z,72.20
2022-09-27T00:56:34.407Z,72.10
2022-09-27T00:59:09.117Z,72.00
2022-09-27T01:01:39.234Z,72.00
2022-09-27T01:04:10.251Z,72.00
2022-09-27T01:06:39.095Z,72.00
2022-09-27T01:09:09.353Z,72.00
2022-09-27T01:11:43.587Z,72.00
2022-09-27T01:14:33.863Z,71.90
2022-09-27T01:17:13.319Z,71.80
2022-09-27T01:20:04.807Z,71.80
2022-09-27T01:22:43.352Z,71.80
2022-09-27T01:25:31.628Z,71.50
2022-09-27T01:28:27.939Z,71.40
2022-09-27T01:31:03.125Z,71.40
2022-09-27T01:33:44.162Z,71.30
2022-09-27T01:36:31.921Z,71.30
2022-09-27T01:39:12.267Z,71.30
2022-09-27T01:41:47.579Z,71.30
2022-09-27T01:44:24.961Z,71.20
2022-09-27T01:46:57.240Z,71.10
2022-09-27T01:49:31.904Z,71.00
2022-09-27T01:52:02.430Z,70.90
2022-09-27T01:54:36.622Z,70.90
2022-09-27T01:57:05.820Z,70.80
2022-09-27T01:59:39.303Z,70.80
2022-09-27T02:02:12.247Z,70.90
2022-09-27T02:04:43.772Z,71.00
2022-09-27T02:07:18.518Z,71.00
2022-09-27T02:09:51.028Z,71.00
2022-09-27T02:12:23.173Z,71.00
2022-09-27T02:14:55.495Z,71.00
2022-09-27T02:17:32.540Z,71.10
2022-09-27T02:20:07.885Z,71.00
2022-09-27T02:22:40.694Z,71.00
2022-09-27T02:25:17.934Z,71.00
2022-09-27T02:27:56.308Z,71.00
2022-09-27T02:30:25.014Z,71.10
2022-09-27T02:32:55.361Z,71.00
2022-09-27T02:35:27.852Z,71.20
2022-09-27T02:37:56.653Z,71.30
2022-09-27T02:40:26.226Z,71.20
2022-09-27T02:42:54.632Z,71.30
2022-09-27T02:45:24.287Z,71.30
2022-09-27T02:48:05.483Z,71.30
2022-09-27T02:51:00.978Z,71.50
2022-09-27T02:53:43.027Z,71.40
2022-09-27T02:56:13.830Z,71.30
2022-09-27T02:58:52.555Z,71.20
2022-09-27T03:01:30.402Z,71.00
2022-09-27T03:04:05.400Z,70.90
2022-09-27T03:06:34.211Z,70.90
2022-09-27T03:09:02.364Z,70.70
2022-09-27T03:11:30.514Z,70.80
2022-09-27T03:14:08.860Z,70.80
2022-09-27T03:16:37.533Z,70.80
2022-09-27T03:19:07.177Z,70.90
2022-09-27T03:21:35.923Z,71.00
2022-09-27T03:24:04.397Z,71.30
2022-09-27T03:26:32.653Z,71.30
2022-09-27T03:29:01.180Z,71.30
2022-09-27T03:31:30.604Z,71.30
2022-09-27T03:33:58.817Z,71.40
2022-09-27T03:36:28.916Z,71.40
2022-09-27T03:38:57.044Z,71.50
2022-09-27T03:41:25.185Z,71.60
2022-09-27T03:43:53.323Z,71.70
2022-09-27T03:46:21.561Z,71.90
2022-09-27T03:48:49.691Z,71.90
2022-09-27T03:51:17.799Z,71.80
2022-09-27T03:53:47.265Z,71.70
2022-09-27T03:56:15.683Z,71.90
2022-09-27T03:58:43.861Z,71.90
2022-09-27T04:01:12.096Z,71.90
2022-09-27T04:03:40.240Z,71.80
2022-09-27T04:06:09.035Z,71.90
2022-09-27T04:08:37.404Z,71.90
2022-09-27T04:11:07.096Z,71.80
2022-09-27T04:13:35.418Z,72.00
2022-09-27T04:16:03.967Z,72.00
2022-09-27T04:18:32.137Z,71.90
2022-09-27T04:21:00.303Z,71.70
2022-09-27T04:23:30.322Z,71.70
2022-09-27T04:25:58.795Z,71.70
2022-09-27T04:28:30.225Z,71.60
2022-09-27T04:30:58.831Z,71.70
2022-09-27T04:33:26.971Z,71.70
2022-09-27T04:36:12.546Z,71.80
2022-09-27T04:38:40.708Z,71.90
2022-09-27T04:41:09.226Z,71.80
2022-09-27T04:43:38.862Z,71.80
2022-09-27T04:46:07.249Z,71.70
2022-09-27T04:48:35.425Z,71.60
2022-09-27T04:51:05.744Z,71.70
2022-09-27T04:53:34.226Z,71.90
2022-09-27T04:56:05.993Z,71.90
2022-09-27T04:58:35.373Z,71.80
2022-09-27T05:01:05.126Z,71.90
2022-09-27T05:03:33.786Z,72.10
2022-09-27T05:06:02.987Z,72.20
2022-09-27T05:08:31.170Z,72.10
2022-09-27T05:10:59.440Z,72.10
2022-09-27T05:13:27.990Z,72.20
2022-09-27T05:15:56.106Z,72.30
2022-09-27T05:18:25.618Z,72.50
2022-09-27T05:20:54.059Z,72.50
2022-09-27T05:23:22.177Z,72.50
2022-09-27T05:25:50.478Z,72.70
2022-09-27T05:28:18.763Z,72.70
2022-09-27T05:30:46.973Z,72.60
2022-09-27T05:33:15.185Z,72.50
2022-09-27T05:35:47.537Z,72.50
2022-09-27T05:38:15.794Z,72.50
2022-09-27T05:40:44.630Z,72.50
2022-09-27T05:43:12.917Z,72.60
2022-09-27T05:45:41.217Z,73.30
2022-09-27T05:48:09.706Z,72.70
2022-09-27T05:50:38.020Z,72.70
2022-09-27T05:53:07.847Z,72.70
2022-09-27T05:55:35.982Z,72.70
2022-09-27T05:58:05.763Z,72.60
2022-09-27T06:00:34.188Z,72.60
2022-09-27T06:03:04.522Z,72.60
2022-09-27T06:05:36.875Z,72.60
2022-09-27T06:08:08.632Z,72.70
2022-09-27T06:10:38.000Z,72.60
2022-09-27T06:13:08.240Z,72.60
2022-09-27T06:15:39.230Z,72.70
2022-09-27T06:18:10.528Z,72.80
2022-09-27T06:20:39.231Z,72.80
2022-09-27T06:23:11.030Z,72.70
2022-09-27T06:25:40.293Z,72.80
2022-09-27T06:28:09.483Z,72.60
2022-09-27T06:30:40.736Z,72.50
2022-09-27T06:33:12.726Z,72.60
2022-09-27T06:35:41.970Z,72.70
2022-09-27T06:38:13.002Z,72.60
2022-09-27T06:40:41.408Z,72.40
2022-09-27T06:43:11.172Z,72.40
2022-09-27T06:45:39.645Z,72.40
2022-09-27T06:48:10.487Z,72.50
2022-09-27T06:50:40.764Z,72.50
2022-09-27T06:53:12.216Z,72.60
2022-09-27T06:55:41.121Z,72.60
2022-09-27T06:58:29.168Z,72.50
2022-09-27T07:00:58.848Z,72.60
2022-09-27T07:03:36.555Z,72.20
2022-09-27T07:06:09.095Z,72.30
2022-09-27T07:08:38.680Z,72.30
2022-09-27T07:11:08.574Z,72.20
2022-09-27T07:13:40.471Z,72.30
2022-09-27T07:16:08.560Z,72.10
2022-09-27T07:18:36.837Z,72.10
2022-09-27T07:21:04.987Z,71.80
2022-09-27T07:23:33.275Z,71.90
2022-09-27T07:26:06.875Z,72.00
2022-09-27T07:28:35.843Z,72.30
2022-09-27T07:31:05.196Z,72.20
2022-09-27T07:33:33.943Z,72.30
2022-09-27T07:36:07.406Z,72.30
2022-09-27T07:38:35.679Z,72.40
2022-09-27T07:41:09.171Z,73.20
2022-09-27T07:43:37.305Z,72.50
2022-09-27T07:46:05.541Z,72.20
2022-09-27T07:48:33.895Z,72.00
2022-09-27T07:51:02.002Z,71.80
2022-09-27T07:53:30.138Z,71.80
2022-09-27T07:55:59.031Z,71.70
2022-09-27T07:58:30.511Z,71.40
2022-09-27T08:01:00.786Z,70.90
2022-09-27T08:03:29.318Z,70.80
2022-09-27T08:05:57.609Z,70.70
2022-09-27T08:08:25.722Z,70.60
2022-09-27T08:10:55.769Z,70.60
2022-09-27T08:13:24.053Z,70.70
2022-09-27T08:15:53.578Z,70.80
2022-09-27T08:18:24.281Z,71.10
2022-09-27T08:20:52.596Z,71.20
2022-09-27T08:23:20.770Z,71.00
2022-09-27T08:25:53.523Z,71.00
2022-09-27T08:28:23.267Z,71.30
2022-09-27T08:30:53.101Z,71.00
2022-09-27T08:33:21.328Z,71.00
2022-09-27T08:35:49.546Z,70.80
2022-09-27T08:38:17.626Z,70.60
2022-09-27T08:40:54.610Z,70.40
2022-09-27T08:43:37.795Z,70.40
2022-09-27T08:46:26.458Z,70.10
2022-09-27T08:49:01.778Z,70.00
2022-09-27T08:51:32.976Z,69.90
2022-09-27T08:54:06.772Z,70.00
2022-09-27T08:56:35.938Z,70.20
2022-09-27T08:59:11.636Z,70.20
2022-09-27T09:01:41.411Z,70.00
2022-09-27T09:04:12.175Z,70.00
2022-09-27T09:06:46.498Z,69.70
2022-09-27T09:09:27.557Z,69.70
2022-09-27T09:12:19.446Z,69.50
2022-09-27T09:15:03.845Z,69.30
2022-09-27T09:17:48.506Z,69.10
2022-09-27T09:20:27.204Z,69.10
2022-09-27T09:23:12.166Z,69.20
2022-09-27T09:25:47.303Z,69.20
2022-09-27T09:28:33.376Z,69.30
2022-09-27T09:31:09.307Z,69.10
2022-09-27T09:33:42.687Z,69.80
2022-09-27T09:36:19.939Z,68.80
2022-09-27T09:38:51.989Z,68.80
2022-09-27T09:41:22.124Z,68.90
2022-09-27T09:43:53.757Z,69.00
2022-09-27T09:46:28.459Z,68.30
2022-09-27T09:49:07.447Z,68.00
2022-09-27T09:51:41.178Z,68.20
2022-09-27T09:54:16.953Z,68.00
2022-09-27T09:56:49.269Z,67.60
2022-09-27T09:59:22.134Z,67.50
2022-09-27T10:01:50.407Z,67.30
2022-09-27T10:04:24.754Z,67.10
2022-09-27T10:06:53.874Z,66.60
2022-09-27T10:09:25.675Z,66.70
2022-09-27T10:11:54.125Z,66.70
2022-09-27T10:14:23.697Z,66.70
2022-09-27T10:16:56.870Z,66.40
2022-09-27T10:19:30.716Z,65.70
2022-09-27T10:22:03.228Z,65.40
2022-09-27T10:24:31.502Z,65.10
2022-09-27T10:27:01.911Z,65.40
2022-09-27T10:29:36.979Z,65.20
2022-09-27T10:32:07.169Z,65.10
2022-09-27T10:34:39.542Z,64.90
2022-09-27T10:37:18.825Z,64.90
2022-09-27T10:39:48.298Z,65.10
2022-09-27T10:42:35.396Z,65.30
2022-09-27T10:45:28.933Z,65.30
2022-09-27T10:47:57.813Z,65.10
2022-09-27T10:53:21.905Z,65.10
2022-09-27T10:55:53.267Z,64.80
2022-09-27T10:58:27.780Z,64.40
2022-09-27T11:00:57.894Z,64.10
2022-09-27T11:03:29.013Z,64.30
2022-09-27T11:05:59.532Z,64.10
2022-09-27T11:08:32.988Z,63.60
2022-09-27T11:11:07.863Z,62.70
2022-09-27T11:13:36.336Z,62.80
2022-09-27T11:16:22.500Z,63.00
2022-09-27T11:19:01.166Z,62.20
2022-09-27T11:21:40.120Z,62.40
2022-09-27T11:24:39.984Z,62.50
2022-09-27T11:27:22.466Z,62.20
2022-09-27T11:30:02.969Z,62.00
2022-09-27T11:32:55.077Z,62.00
2022-09-27T11:35:34.360Z,62.00
2022-09-27T11:38:34.692Z,61.80
2022-09-27T11:41:32.467Z,61.40
2022-09-27T11:44:28.381Z,61.70
2022-09-27T11:47:04.463Z,61.80
2022-09-27T11:49:58.958Z,61.90
2022-09-27T11:52:41.027Z,62.00
2022-09-27T11:55:15.324Z,61.80
2022-09-27T11:57:48.116Z,62.50
2022-09-27T12:00:22.359Z,61.10
2022-09-27T12:03:26.549Z,60.20
2022-09-27T12:06:07.857Z,60.30
2022-09-27T12:08:50.415Z,59.90
2022-09-27T12:11:26.427Z,60.40
2022-09-27T12:14:00.327Z,60.40
2022-09-27T12:16:31.579Z,61.40
2022-09-27T12:19:02.465Z,61.80
2022-09-27T12:21:33.973Z,62.10
2022-09-27T12:24:03.587Z,62.40
2022-09-27T12:26:38.643Z,63.10
2022-09-27T12:29:14.087Z,63.30
2022-09-27T12:31:47.264Z,63.50
2022-09-27T12:37:14.990Z,63.80
2022-09-27T12:39:51.326Z,63.40
2022-09-27T12:42:25.208Z,63.60
2022-09-27T12:44:54.415Z,63.40
2022-09-27T12:47:38.016Z,63.40
2022-09-27T12:50:16.314Z,63.20
2022-09-27T12:52:48.258Z,62.90
2022-09-27T12:55:30.935Z,63.60
2022-09-27T12:58:25.818Z,63.40
2022-09-27T13:01:00.808Z,63.60
2022-09-27T13:03:44.584Z,63.70
2022-09-27T13:06:48.580Z,63.60
2022-09-27T13:09:51.054Z,63.60
2022-09-27T13:12:21.902Z,63.50
2022-09-27T13:15:00.155Z,63.70
2022-09-27T13:17:47.715Z,63.20
2022-09-27T13:20:49.523Z,62.90
2022-09-27T13:24:00.439Z,62.80
2022-09-27T13:26:49.598Z,63.00
2022-09-27T13:29:29.436Z,63.40
2022-09-27T13:32:23.278Z,63.20
2022-09-27T13:34:53.730Z,63.30
2022-09-27T13:37:37.476Z,63.10
2022-09-27T13:40:22.655Z,62.80
2022-09-27T13:42:59.672Z,62.50
2022-09-27T13:45:31.727Z,62.60
2022-09-27T13:48:09.087Z,62.70
2022-09-27T13:50:47.388Z,62.80
2022-09-27T13:53:24.624Z,62.40
2022-09-27T13:55:53.904Z,62.30
2022-09-27T13:58:41.571Z,62.50
2022-09-27T14:01:17.940Z,62.60
2022-09-27T14:04:00.907Z,63.00
2022-09-27T14:06:35.212Z,62.90
2022-09-27T14:09:07.942Z,64.40
2022-09-27T14:11:40.129Z,64.30
2022-09-27T14:14:16.886Z,64.40
2022-09-27T14:16:47.674Z,64.50
2022-09-27T14:19:20.219Z,64.40
2022-09-27T14:21:49.189Z,64.60
2022-09-27T14:24:29.047Z,64.70
2022-09-27T14:27:17.262Z,64.80
2022-09-27T14:29:48.844Z,64.50
2022-09-27T14:32:18.990Z,64.60
2022-09-27T14:35:03.339Z,64.60
2022-09-27T14:37:30.736Z,64.50
2022-09-27T14:40:03.049Z,64.70
2022-09-27T14:42:36.429Z,64.60
2022-09-27T14:45:20.034Z,64.90
2022-09-27T14:47:49.216Z,65.20
2022-09-27T14:50:28.083Z,65.20
2022-09-27T14:52:57.625Z,65.20
2022-09-27T14:55:29.438Z,65.20
2022-09-27T14:57:59.894Z,65.70
2022-09-27T15:00:31.316Z,66.00
2022-09-27T15:03:03.185Z,65.80
2022-09-27T15:05:34.868Z,65.90
2022-09-27T15:08:05.874Z,65.80
2022-09-27T15:10:36.644Z,65.60
2022-09-27T15:13:06.971Z,65.40
2022-09-27T15:15:36.322Z,65.40
2022-09-27T15:18:05.877Z,65.20
2022-09-27T15:20:36.494Z,65.20
2022-09-27T15:23:06.570Z,64.70
2022-09-27T15:25:37.087Z,64.70
2022-09-27T15:28:07.298Z,64.70
2022-09-27T15:30:37.479Z,64.70
2022-09-27T15:33:06.679Z,64.70
2022-09-27T15:35:37.888Z,64.80
2022-09-27T15:38:23.224Z,64.40
2022-09-27T15:41:10.723Z,64.50
2022-09-27T15:43:41.964Z,64.70
2022-09-27T15:46:35.187Z,64.50
2022-09-27T15:49:24.232Z,64.70
2022-09-27T15:51:54.386Z,64.60
2022-09-27T15:54:23.191Z,64.50
2022-09-27T15:56:55.515Z,64.70
2022-09-27T15:59:26.840Z,64.70
2022-09-27T16:01:58.540Z,64.50
2022-09-27T16:04:26.877Z,64.40
2022-09-27T16:06:56.443Z,64.40
2022-09-27T16:09:24.466Z,64.10
2022-09-27T16:11:52.634Z,64.20
2022-09-27T16:14:20.823Z,64.20
2022-09-27T16:16:52.086Z,64.20
2022-09-27T16:19:20.434Z,64.00
2022-09-27T16:21:49.010Z,64.00
2022-09-27T16:24:18.449Z,64.10
2022-09-27T16:26:46.559Z,64.10
2022-09-27T16:29:16.212Z,64.20
2022-09-27T16:31:45.280Z,64.40
2022-09-27T16:34:14.055Z,65.20
2022-09-27T16:36:42.260Z,64.50
2022-09-27T16:39:13.844Z,64.70
2022-09-27T16:41:43.760Z,64.80
2022-09-27T16:44:14.335Z,64.70
2022-09-27T16:46:43.191Z,64.80
2022-09-27T16:49:31.617Z,64.90
2022-09-27T16:52:01.870Z,64.80
2022-09-27T16:54:30.555Z,65.00
2022-09-27T16:57:00.614Z,65.10
2022-09-27T16:59:29.321Z,64.80
2022-09-27T17:01:58.649Z,64.20
2022-09-27T17:04:27.985Z,64.30
2022-09-27T17:06:56.557Z,64.60
2022-09-27T17:09:25.312Z,64.80
2022-09-27T17:11:53.524Z,65.00
2022-09-27T17:14:23.381Z,65.10
2022-09-27T17:16:52.066Z,65.10
2022-09-27T17:19:20.961Z,65.30
2022-09-27T17:21:49.022Z,65.40
2022-09-27T17:24:17.684Z,65.70
2022-09-27T17:26:46.380Z,65.90
2022-09-27T17:29:14.962Z,66.20
2022-09-27T17:31:46.202Z,66.40
2022-09-27T17:34:15.722Z,66.70
2022-09-27T17:36:48.227Z,66.70
2022-09-27T17:39:18.531Z,66.60
2022-09-27T17:41:46.619Z,66.60
2022-09-27T17:44:16.626Z,66.70
2022-09-27T17:46:47.163Z,66.70
2022-09-27T17:49:32.953Z,66.80
2022-09-27T17:52:01.771Z,67.00
2022-09-27T17:54:29.886Z,67.10
2022-09-27T17:56:57.994Z,67.10
2022-09-27T17:59:26.920Z,67.20
2022-09-27T18:01:56.515Z,67.30
2022-09-27T18:04:24.714Z,67.40
2022-09-27T18:06:52.882Z,67.50
2022-09-27T18:09:21.148Z,67.50
2022-09-27T18:11:49.229Z,67.60
2022-09-27T18:14:17.901Z,67.50
2022-09-27T18:16:46.165Z,67.40
2022-09-27T18:19:17.242Z,67.40
2022-09-27T18:21:45.641Z,67.50
2022-09-27T18:24:14.896Z,67.40
2022-09-27T18:26:44.136Z,67.30
2022-09-27T18:29:14.097Z,67.30
2022-09-27T18:31:47.502Z,67.40
2022-09-27T18:34:18.980Z,67.30
2022-09-27T18:36:47.879Z,68.10
2022-09-27T18:39:19.266Z,67.40
2022-09-27T18:41:49.190Z,67.40
2022-09-27T18:44:19.026Z,67.20
2022-09-27T18:46:47.731Z,67.00
2022-09-27T18:49:21.090Z,66.80
2022-09-27T18:51:51.974Z,66.70
2022-09-27T18:54:21.699Z,66.70
2022-09-27T18:56:52.230Z,66.70
2022-09-27T18:59:20.983Z,66.80
2022-09-27T19:01:49.170Z,66.80
2022-09-27T19:04:24.156Z,66.90
2022-09-27T19:06:53.486Z,66.90
2022-09-27T19:09:21.809Z,66.90
2022-09-27T19:11:50.111Z,67.00
2022-09-27T19:14:20.998Z,67.00
2022-09-27T19:16:49.358Z,67.00
2022-09-27T19:19:22.256Z,67.00
2022-09-27T19:21:50.636Z,66.90
2022-09-27T19:24:19.261Z,66.80
2022-09-27T19:26:47.447Z,66.80
2022-09-27T19:29:15.721Z,66.60
2022-09-27T19:31:44.216Z,66.70
2022-09-27T19:34:12.694Z,66.60
2022-09-27T19:36:42.208Z,66.50
2022-09-27T19:39:10.502Z,66.60
2022-09-27T19:41:39.562Z,66.90
2022-09-27T19:44:07.817Z,66.70
2022-09-27T19:46:36.033Z,66.70
2022-09-27T19:49:04.198Z,66.90
2022-09-27T19:51:32.516Z,66.90
2022-09-27T19:54:02.547Z,67.00
2022-09-27T19:56:30.984Z,67.30
2022-09-27T19:59:00.199Z,67.40
2022-09-27T20:01:30.390Z,67.30
2022-09-27T20:03:59.881Z,67.30
2022-09-27T20:06:27.998Z,67.40
2022-09-27T20:08:56.541Z,67.60
2022-09-27T20:11:26.936Z,67.60
2022-09-27T20:13:55.424Z,67.70
2022-09-27T20:16:25.107Z,67.80
2022-09-27T20:18:55.196Z,67.90
2022-09-27T20:21:25.433Z,68.10
2022-09-27T20:23:55.387Z,68.00
2022-09-27T20:26:26.759Z,68.00
2022-09-27T20:28:56.964Z,68.10
2022-09-27T20:31:26.871Z,68.10
2022-09-27T20:33:55.204Z,68.10
2022-09-27T20:36:24.571Z,68.10
2022-09-27T20:38:59.600Z,68.20
2022-09-27T20:41:32.435Z,68.30
2022-09-27T20:44:03.489Z,68.30
2022-09-27T20:46:32.108Z,68.40
2022-09-27T20:49:02.866Z,68.40
2022-09-27T20:51:33.327Z,68.40
2022-09-27T20:54:13.374Z,68.50
2022-09-27T20:56:44.690Z,68.50
2022-09-27T20:59:16.424Z,68.70
2022-09-27T21:01:44.997Z,68.80
2022-09-27T21:04:15.457Z,68.60
2022-09-27T21:06:43.761Z,68.60
2022-09-27T21:09:18.352Z,68.80
2022-09-27T21:11:48.533Z,68.90
2022-09-27T21:14:16.987Z,69.20
2022-09-27T21:16:45.344Z,69.40
2022-09-27T21:19:13.950Z,69.50
2022-09-27T21:21:42.265Z,69.70
2022-09-27T21:24:10.491Z,69.90
2022-09-27T21:26:38.667Z,70.10
2022-09-27T21:29:11.600Z,70.20
2022-09-27T21:31:40.059Z,70.30
2022-09-27T21:34:08.314Z,70.30
2022-09-27T21:36:38.740Z,70.40
2022-09-27T21:39:08.764Z,70.60
2022-09-27T21:41:37.357Z,70.60
2022-09-27T21:44:07.651Z,70.70
2022-09-27T21:46:35.870Z,70.90
2022-09-27T21:49:04.141Z,70.90
2022-09-27T21:51:36.384Z,70.90
2022-09-27T21:54:08.271Z,71.00
2022-09-27T21:56:38.019Z,71.10
2022-09-27T21:59:10.482Z,71.00
2022-09-27T22:01:38.846Z,71.20
2022-09-27T22:04:08.239Z,71.10
2022-09-27T22:06:38.086Z,71.00
2022-09-27T22:09:08.498Z,71.10
2022-09-27T22:11:40.134Z,71.20
2022-09-27T22:14:10.569Z,71.00
2022-09-27T22:16:38.914Z,71.00
2022-09-27T22:19:07.294Z,70.80
2022-09-27T22:21:37.963Z,70.60
2022-09-27T22:24:08.435Z,70.20
2022-09-27T22:26:38.624Z,70.00
2022-09-27T22:29:07.757Z,69.90
2022-09-27T22:31:38.262Z,69.80
2022-09-27T22:34:10.830Z,69.70
2022-09-27T22:36:39.110Z,69.70
2022-09-27T22:39:07.541Z,69.40
2022-09-27T22:41:36.171Z,69.30
2022-09-27T22:44:04.367Z,69.40
2022-09-27T22:46:32.652Z,69.50
2022-09-27T22:49:02.255Z,69.60
2022-09-27T22:51:30.715Z,69.60
2022-09-27T22:53:58.836Z,69.60
2022-09-27T22:56:27.125Z,69.90
2022-09-27T22:58:55.275Z,70.00
2022-09-27T23:01:24.896Z,70.10
2022-09-27T23:03:55.970Z,70.30
2022-09-27T23:06:25.855Z,70.40
2022-09-27T23:08:54.968Z,70.40
2022-09-27T23:11:23.977Z,70.30
2022-09-27T23:13:52.927Z,70.40
2022-09-27T23:16:24.565Z,70.50
2022-09-27T23:18:54.650Z,70.40
2022-09-27T23:21:25.978Z,70.60
2022-09-27T23:23:57.162Z,70.50
2022-09-27T23:26:27.644Z,70.50
2022-09-27T23:28:57.610Z,70.40
2022-09-27T23:31:27.146Z,70.40
2022-09-27T23:33:55.448Z,70.30
2022-09-27T23:36:26.752Z,70.30
2022-09-27T23:38:59.664Z,70.30
2022-09-27T23:41:28.104Z,70.40
2022-09-27T23:43:56.628Z,70.30
2022-09-27T23:46:25.341Z,70.50
2022-09-27T23:48:53.768Z,70.50
2022-09-27T23:51:21.903Z,70.50
2022-09-27T23:53:50.047Z,70.60
2022-09-27T23:56:19.532Z,70.60
2022-09-27T23:58:48.216Z,70.70
